sensor_id;sensor_type;location;lat;lon;timestamp;pressure;altitude;pressure_sealevel;temperature;humidity
14966;BME280;7577;45.226;5.798;2023-04-15T00:01:35;98342.80;;;21.09;42.47
14966;BME280;7577;45.226;5.798;2023-04-15T00:06:43;98332.28;;;21.08;42.54
14966;BME280;7577;45.226;5.798;2023-04-15T00:09:14;98329.76;;;21.03;42.52
14966;BME280;7577;45.226;5.798;2023-04-15T00:11:45;98331.48;;;21.02;42.56
14966;BME280;7577;45.226;5.798;2023-04-15T00:14:15;98335.19;;;21.00;42.62
14966;BME280;7577;45.226;5.798;2023-04-15T00:16:45;98336.32;;;20.99;42.69
14966;BME280;7577;45.226;5.798;2023-04-15T00:19:17;98334.94;;;20.99;42.66
14966;BME280;7577;45.226;5.798;2023-04-15T00:21:47;98335.41;;;21.01;42.69
14966;BME280;7577;45.226;5.798;2023-04-15T00:24:17;98336.45;;;21.02;42.64
14966;BME280;7577;45.226;5.798;2023-04-15T00:26:47;98337.14;;;20.99;42.67
14966;BME280;7577;45.226;5.798;2023-04-15T00:31:55;98331.27;;;21.01;42.71
14966;BME280;7577;45.226;5.798;2023-04-15T00:34:26;98333.89;;;20.97;42.74
14966;BME280;7577;45.226;5.798;2023-04-15T00:36:56;98330.78;;;20.99;42.70
14966;BME280;7577;45.226;5.798;2023-04-15T00:39:27;98327.33;;;21.02;42.62
14966;BME280;7577;45.226;5.798;2023-04-15T00:41:57;98334.38;;;20.99;42.68
14966;BME280;7577;45.226;5.798;2023-04-15T00:44:28;98328.49;;;21.01;42.71
14966;BME280;7577;45.226;5.798;2023-04-15T00:46:59;98332.42;;;21.00;42.67
14966;BME280;7577;45.226;5.798;2023-04-15T00:49:30;98336.56;;;20.94;42.79
14966;BME280;7577;45.226;5.798;2023-04-15T00:52:00;98345.09;;;20.95;42.82
14966;BME280;7577;45.226;5.798;2023-04-15T00:54:31;98338.88;;;20.92;42.85
14966;BME280;7577;45.226;5.798;2023-04-15T00:57:01;98332.53;;;20.91;42.86
14966;BME280;7577;45.226;5.798;2023-04-15T00:59:33;98333.91;;;20.91;42.87
14966;BME280;7577;45.226;5.798;2023-04-15T01:02:04;98338.28;;;20.92;42.89
14966;BME280;7577;45.226;5.798;2023-04-15T01:07:19;98332.53;;;20.91;42.94
14966;BME280;7577;45.226;5.798;2023-04-15T01:09:50;98334.00;;;20.89;42.95
14966;BME280;7577;45.226;5.798;2023-04-15T01:12:20;98335.16;;;20.88;42.98
14966;BME280;7577;45.226;5.798;2023-04-15T01:14:51;98341.38;;;20.85;43.04
14966;BME280;7577;45.226;5.798;2023-04-15T01:17:22;98335.16;;;20.88;42.99
14966;BME280;7577;45.226;5.798;2023-04-15T01:19:53;98327.08;;;20.89;42.97
14966;BME280;7577;45.226;5.798;2023-04-15T01:25:05;98326.03;;;20.87;43.01
14966;BME280;7577;45.226;5.798;2023-04-15T01:27:38;98332.03;;;20.83;43.11
14966;BME280;7577;45.226;5.798;2023-04-15T01:30:11;98334.80;;;20.83;43.12
14966;BME280;7577;45.226;5.798;2023-04-15T01:32:41;98330.64;;;20.83;43.06
14966;BME280;7577;45.226;5.798;2023-04-15T01:35:11;98334.13;;;20.80;43.13
14966;BME280;7577;45.226;5.798;2023-04-15T01:37:41;98344.48;;;20.83;43.09
14966;BME280;7577;45.226;5.798;2023-04-15T01:40:11;98343.92;;;20.84;43.07
14966;BME280;7577;45.226;5.798;2023-04-15T01:42:42;98337.70;;;20.87;43.08
14966;BME280;7577;45.226;5.798;2023-04-15T01:45:13;98338.27;;;20.86;43.01
14966;BME280;7577;45.226;5.798;2023-04-15T01:50:21;98334.80;;;20.83;43.11
14966;BME280;7577;45.226;5.798;2023-04-15T01:52:51;98336.41;;;20.84;43.08
14966;BME280;7577;45.226;5.798;2023-04-15T01:58:02;98340.22;;;20.86;43.12
14966;BME280;7577;45.226;5.798;2023-04-15T02:03:10;98345.53;;;20.85;43.11
14966;BME280;7577;45.226;5.798;2023-04-15T02:05:40;98350.73;;;20.80;43.10
14966;BME280;7577;45.226;5.798;2023-04-15T02:08:11;98349.68;;;20.85;43.04
14966;BME280;7577;45.226;5.798;2023-04-15T02:13:19;98340.11;;;20.82;43.22
14966;BME280;7577;45.226;5.798;2023-04-15T02:15:50;98340.45;;;20.81;43.21
14966;BME280;7577;45.226;5.798;2023-04-15T02:18:20;98339.41;;;20.79;43.24
14966;BME280;7577;45.226;5.798;2023-04-15T02:20:52;98340.00;;;20.79;43.24
14966;BME280;7577;45.226;5.798;2023-04-15T02:26:00;98330.98;;;20.82;43.22
14966;BME280;7577;45.226;5.798;2023-04-15T02:28:31;98338.39;;;20.78;43.29
14966;BME280;7577;45.226;5.798;2023-04-15T02:33:42;98335.03;;;20.78;43.29
14966;BME280;7577;45.226;5.798;2023-04-15T02:36:13;98332.86;;;20.78;43.22
14966;BME280;7577;45.226;5.798;2023-04-15T02:38:43;98340.23;;;20.74;43.33
14966;BME280;7577;45.226;5.798;2023-04-15T02:41:13;98331.56;;;20.75;43.32
14966;BME280;7577;45.226;5.798;2023-04-15T02:43:43;98329.73;;;20.73;43.35
14966;BME280;7577;45.226;5.798;2023-04-15T02:46:13;98333.77;;;20.76;43.30
14966;BME280;7577;45.226;5.798;2023-04-15T02:48:43;98335.61;;;20.72;43.39
14966;BME280;7577;45.226;5.798;2023-04-15T02:51:15;98334.56;;;20.70;43.39
14966;BME280;7577;45.226;5.798;2023-04-15T02:53:47;98331.80;;;20.70;43.38
14966;BME280;7577;45.226;5.798;2023-04-15T02:56:18;98339.08;;;20.75;43.33
14966;BME280;7577;45.226;5.798;2023-04-15T02:58:48;98335.48;;;20.74;43.29
14966;BME280;7577;45.226;5.798;2023-04-15T03:01:19;98337.92;;;20.70;43.36
14966;BME280;7577;45.226;5.798;2023-04-15T03:03:49;98332.39;;;20.70;43.39
14966;BME280;7577;45.226;5.798;2023-04-15T03:06:19;98325.13;;;20.71;43.37
14966;BME280;7577;45.226;5.798;2023-04-15T03:11:27;98336.76;;;20.77;43.23
14966;BME280;7577;45.226;5.798;2023-04-15T03:16:35;98331.56;;;20.75;43.28
14966;BME280;7577;45.226;5.798;2023-04-15T03:19:06;98332.05;;;20.71;43.32
14966;BME280;7577;45.226;5.798;2023-04-15T03:24:13;98340.80;;;20.73;43.29
14966;BME280;7577;45.226;5.798;2023-04-15T03:26:44;98344.59;;;20.69;43.32
14966;BME280;7577;45.226;5.798;2023-04-15T03:29:14;98336.66;;;20.67;43.37
14966;BME280;7577;45.226;5.798;2023-04-15T03:31:44;98331.91;;;20.68;43.33
14966;BME280;7577;45.226;5.798;2023-04-15T03:34:15;98324.65;;;20.69;43.30
14966;BME280;7577;45.226;5.798;2023-04-15T03:36:45;98328.46;;;20.71;43.29
14966;BME280;7577;45.226;5.798;2023-04-15T03:39:15;98330.41;;;20.70;43.31
14966;BME280;7577;45.226;5.798;2023-04-15T03:41:45;98334.11;;;20.74;43.25
14966;BME280;7577;45.226;5.798;2023-04-15T03:44:16;98331.80;;;20.70;43.29
14966;BME280;7577;45.226;5.798;2023-04-15T03:49:24;98325.70;;;20.71;43.32
14966;BME280;7577;45.226;5.798;2023-04-15T03:51:54;98329.86;;;20.65;43.43
14966;BME280;7577;45.226;5.798;2023-04-15T03:54:25;98333.52;;;20.63;43.41
14966;BME280;7577;45.226;5.798;2023-04-15T03:56:55;98333.30;;;20.68;43.40
14966;BME280;7577;45.226;5.798;2023-04-15T03:59:25;98338.48;;;20.69;43.35
14966;BME280;7577;45.226;5.798;2023-04-15T04:01:55;98342.64;;;20.69;43.34
14966;BME280;7577;45.226;5.798;2023-04-15T04:04:25;98344.84;;;20.70;43.34
14966;BME280;7577;45.226;5.798;2023-04-15T04:06:55;98338.97;;;20.71;43.24
14966;BME280;7577;45.226;5.798;2023-04-15T04:12:04;98341.62;;;20.74;43.24
14966;BME280;7577;45.226;5.798;2023-04-15T04:14:34;98343.69;;;20.71;43.30
14966;BME280;7577;45.226;5.798;2023-04-15T04:17:04;98345.30;;;20.72;43.28
14966;BME280;7577;45.226;5.798;2023-04-15T04:19:34;98341.03;;;20.68;43.35
14966;BME280;7577;45.226;5.798;2023-04-15T04:24:42;98349.67;;;20.73;43.29
14966;BME280;7577;45.226;5.798;2023-04-15T04:27:12;98350.61;;;20.71;43.35
14966;BME280;7577;45.226;5.798;2023-04-15T04:29:42;98349.22;;;20.71;43.36
14966;BME280;7577;45.226;5.798;2023-04-15T04:32:14;98349.22;;;20.71;43.34
14966;BME280;7577;45.226;5.798;2023-04-15T04:34:44;98350.04;;;20.71;43.32
14966;BME280;7577;45.226;5.798;2023-04-15T04:37:15;98346.90;;;20.73;43.34
14966;BME280;7577;45.226;5.798;2023-04-15T04:39:46;98352.69;;;20.74;43.34
14966;BME280;7577;45.226;5.798;2023-04-15T04:42:17;98354.86;;;20.74;43.36
14966;BME280;7577;45.226;5.798;2023-04-15T04:47:24;98343.11;;;20.77;43.33
14966;BME280;7577;45.226;5.798;2023-04-15T04:52:33;98350.61;;;20.71;43.51
14966;BME280;7577;45.226;5.798;2023-04-15T04:55:03;98352.33;;;20.69;43.48
14966;BME280;7577;45.226;5.798;2023-04-15T04:57:34;98351.16;;;20.70;43.40
14966;BME280;7577;45.226;5.798;2023-04-15T05:00:07;98359.02;;;20.74;43.41
14966;BME280;7577;45.226;5.798;2023-04-15T05:02:37;98366.75;;;20.75;43.37
14966;BME280;7577;45.226;5.798;2023-04-15T05:05:10;98359.23;;;20.75;43.39
14966;BME280;7577;45.226;5.798;2023-04-15T05:07:40;98364.78;;;20.75;43.37
14966;BME280;7577;45.226;5.798;2023-04-15T05:12:49;98352.80;;;20.77;43.45
14966;BME280;7577;45.226;5.798;2023-04-15T05:17:57;98359.38;;;20.79;43.45
14966;BME280;7577;45.226;5.798;2023-04-15T05:20:27;98357.06;;;20.75;43.45
14966;BME280;7577;45.226;5.798;2023-04-15T05:25:35;98359.50;;;20.76;43.51
14966;BME280;7577;45.226;5.798;2023-04-15T05:28:06;98363.65;;;20.76;43.47
14966;BME280;7577;45.226;5.798;2023-04-15T05:33:13;98371.50;;;20.80;43.41
14966;BME280;7577;45.226;5.798;2023-04-15T05:35:43;98380.14;;;20.79;43.44
14966;BME280;7577;45.226;5.798;2023-04-15T05:38:13;98374.38;;;20.78;43.50
14966;BME280;7577;45.226;5.798;2023-04-15T05:40:44;98363.98;;;20.81;43.43
14966;BME280;7577;45.226;5.798;2023-04-15T05:43:14;98362.15;;;20.79;43.46
14966;BME280;7577;45.226;5.798;2023-04-15T05:45:44;98360.77;;;20.79;43.50
14966;BME280;7577;45.226;5.798;2023-04-15T05:48:15;98368.13;;;20.81;43.46
14966;BME280;7577;45.226;5.798;2023-04-15T05:50:45;98380.02;;;20.81;43.45
14966;BME280;7577;45.226;5.798;2023-04-15T05:53:16;98380.02;;;20.81;43.52
14966;BME280;7577;45.226;5.798;2023-04-15T05:55:46;98388.78;;;20.83;43.49
14966;BME280;7577;45.226;5.798;2023-04-15T05:58:16;98379.43;;;20.82;43.55
14966;BME280;7577;45.226;5.798;2023-04-15T06:00:46;98373.44;;;20.80;43.64
14966;BME280;7577;45.226;5.798;2023-04-15T06:05:57;98368.02;;;20.83;43.72
14966;BME280;7577;45.226;5.798;2023-04-15T06:08:28;98369.73;;;20.82;43.80
14966;BME280;7577;45.226;5.798;2023-04-15T06:13:37;98372.30;;;20.87;43.91
14966;BME280;7577;45.226;5.798;2023-04-15T06:16:07;98376.55;;;20.84;44.07
14966;BME280;7577;45.226;5.798;2023-04-15T06:21:16;98364.45;;;20.89;44.36
14966;BME280;7577;45.226;5.798;2023-04-15T06:26:24;98360.78;;;20.91;44.53
14966;BME280;7577;45.226;5.798;2023-04-15T06:28:54;98361.59;;;20.91;44.73
14966;BME280;7577;45.226;5.798;2023-04-15T06:31:25;98357.92;;;20.93;44.90
14966;BME280;7577;45.226;5.798;2023-04-15T06:33:55;98372.78;;;20.95;45.02
14966;BME280;7577;45.226;5.798;2023-04-15T06:36:25;98364.47;;;20.95;45.15
14966;BME280;7577;45.226;5.798;2023-04-15T06:38:55;98369.33;;;20.98;45.17
14966;BME280;7577;45.226;5.798;2023-04-15T06:41:25;98362.06;;;20.99;45.21
14966;BME280;7577;45.226;5.798;2023-04-15T06:43:55;98367.83;;;21.00;45.24
14966;BME280;7577;45.226;5.798;2023-04-15T06:46:26;98365.53;;;21.02;45.23
14966;BME280;7577;45.226;5.798;2023-04-15T06:51:34;98367.59;;;21.05;45.17
14966;BME280;7577;45.226;5.798;2023-04-15T06:54:05;98381.44;;;21.05;45.10
14966;BME280;7577;45.226;5.798;2023-04-15T06:56:35;98385.93;;;21.04;45.15
14966;BME280;7577;45.226;5.798;2023-04-15T06:59:06;98388.95;;;21.05;45.05
14966;BME280;7577;45.226;5.798;2023-04-15T07:01:36;98383.08;;;21.06;45.01
14966;BME280;7577;45.226;5.798;2023-04-15T07:06:44;98394.26;;;21.10;44.99
14966;BME280;7577;45.226;5.798;2023-04-15T07:09:14;98397.48;;;21.06;45.06
14966;BME280;7577;45.226;5.798;2023-04-15T07:11:44;98398.30;;;21.06;45.07
14966;BME280;7577;45.226;5.798;2023-04-15T07:14:14;98404.97;;;21.05;45.13
14966;BME280;7577;45.226;5.798;2023-04-15T07:16:44;98413.16;;;21.08;45.18
14966;BME280;7577;45.226;5.798;2023-04-15T07:19:14;98420.34;;;21.09;45.42
14966;BME280;7577;45.226;5.798;2023-04-15T07:24:23;98396.91;;;21.12;45.40
14966;BME280;7577;45.226;5.798;2023-04-15T07:26:54;98401.97;;;21.22;45.30
14966;BME280;7577;45.226;5.798;2023-04-15T07:29:26;98405.44;;;21.13;45.47
14966;BME280;7577;45.226;5.798;2023-04-15T07:31:56;98401.28;;;21.13;45.44
14966;BME280;7577;45.226;5.798;2023-04-15T07:34:26;98376.84;;;21.15;45.29
14966;BME280;7577;45.226;5.798;2023-04-15T07:39:35;98347.37;;;21.17;45.22
14966;BME280;7577;45.226;5.798;2023-04-15T07:42:05;98349.48;;;21.14;45.21
14966;BME280;7577;45.226;5.798;2023-04-15T07:44:36;98346.94;;;21.15;45.15
14966;BME280;7577;45.226;5.798;2023-04-15T07:47:06;98355.47;;;21.16;45.15
14966;BME280;7577;45.226;5.798;2023-04-15T07:49:36;98373.12;;;21.17;45.05
14966;BME280;7577;45.226;5.798;2023-04-15T07:52:06;98395.17;;;21.20;44.97
14966;BME280;7577;45.226;5.798;2023-04-15T07:54:36;98417.21;;;21.22;44.85
14966;BME280;7577;45.226;5.798;2023-04-15T07:57:07;98450.22;;;21.21;44.82
14966;BME280;7577;45.226;5.798;2023-04-15T07:59:38;98439.14;;;21.21;44.81
14966;BME280;7577;45.226;5.798;2023-04-15T08:02:10;98437.28;;;21.19;44.81
14966;BME280;7577;45.226;5.798;2023-04-15T08:04:41;98436.84;;;21.17;44.85
14966;BME280;7577;45.226;5.798;2023-04-15T08:07:11;98454.73;;;21.14;44.86
14966;BME280;7577;45.226;5.798;2023-04-15T08:09:41;98465.67;;;21.10;44.94
14966;BME280;7577;45.226;5.798;2023-04-15T08:12:11;98475.73;;;21.09;44.95
14966;BME280;7577;45.226;5.798;2023-04-15T08:14:42;98474.91;;;21.08;44.91
14966;BME280;7577;45.226;5.798;2023-04-15T08:17:12;98462.34;;;21.05;44.92
14966;BME280;7577;45.226;5.798;2023-04-15T08:19:42;98460.95;;;21.05;44.90
14966;BME280;7577;45.226;5.798;2023-04-15T08:22:12;98467.88;;;21.05;44.84
14966;BME280;7577;45.226;5.798;2023-04-15T08:24:43;98464.28;;;21.04;44.76
14966;BME280;7577;45.226;5.798;2023-04-15T08:29:51;98461.63;;;21.08;44.61
14966;BME280;7577;45.226;5.798;2023-04-15T08:32:21;98464.40;;;21.08;44.55
14966;BME280;7577;45.226;5.798;2023-04-15T08:34:51;98463.38;;;21.06;44.51
14966;BME280;7577;45.226;5.798;2023-04-15T08:37:21;98468.09;;;21.06;44.47
14966;BME280;7577;45.226;5.798;2023-04-15T08:39:51;98477.91;;;21.09;44.32
14966;BME280;7577;45.226;5.798;2023-04-15T08:42:26;98482.54;;;21.11;44.27
14966;BME280;7577;45.226;5.798;2023-04-15T08:44:56;98479.29;;;21.09;44.25
14966;BME280;7577;45.226;5.798;2023-04-15T08:47:30;98475.95;;;21.10;44.20
14966;BME280;7577;45.226;5.798;2023-04-15T08:50:08;98479.88;;;21.09;44.18
14966;BME280;7577;45.226;5.798;2023-04-15T08:52:39;98477.11;;;21.09;44.13
14966;BME280;7577;45.226;5.798;2023-04-15T08:55:11;98489.20;;;21.10;44.08
14966;BME280;7577;45.226;5.798;2023-04-15T08:57:42;98491.41;;;21.11;44.03
14966;BME280;7577;45.226;5.798;2023-04-15T09:00:14;98502.16;;;21.12;43.99
14966;BME280;7577;45.226;5.798;2023-04-15T09:02:46;98502.97;;;21.13;43.93
14966;BME280;7577;45.226;5.798;2023-04-15T09:05:16;98505.97;;;21.14;43.88
14966;BME280;7577;45.226;5.798;2023-04-15T09:07:48;98509.78;;;21.15;43.83
14966;BME280;7577;45.226;5.798;2023-04-15T09:10:20;98503.88;;;21.17;43.75
14966;BME280;7577;45.226;5.798;2023-04-15T09:12:50;98498.93;;;21.16;43.71
14966;BME280;7577;45.226;5.798;2023-04-15T09:15:20;98509.19;;;21.16;43.65
14966;BME280;7577;45.226;5.798;2023-04-15T09:17:51;98508.03;;;21.17;43.62
14966;BME280;7577;45.226;5.798;2023-04-15T09:20:21;98501.81;;;21.14;43.61
14966;BME280;7577;45.226;5.798;2023-04-15T09:22:53;98510.69;;;21.13;43.59
14966;BME280;7577;45.226;5.798;2023-04-15T09:28:07;98516.70;;;21.15;43.48
14966;BME280;7577;45.226;5.798;2023-04-15T09:30:37;98517.38;;;21.12;43.46
14966;BME280;7577;45.226;5.798;2023-04-15T09:33:07;98529.28;;;21.13;43.42
14966;BME280;7577;45.226;5.798;2023-04-15T09:35:38;98526.97;;;21.15;43.32
14966;BME280;7577;45.226;5.798;2023-04-15T09:38:10;98514.50;;;21.15;43.26
14966;BME280;7577;45.226;5.798;2023-04-15T09:40:41;98517.98;;;21.18;43.15
14966;BME280;7577;45.226;5.798;2023-04-15T09:43:11;98522.81;;;21.21;43.06
14966;BME280;7577;45.226;5.798;2023-04-15T09:45:46;98526.28;;;21.24;42.96
14966;BME280;7577;45.226;5.798;2023-04-15T09:48:19;98527.34;;;21.25;42.86
14966;BME280;7577;45.226;5.798;2023-04-15T09:50:50;98538.08;;;21.27;42.78
14966;BME280;7577;45.226;5.798;2023-04-15T09:53:24;98542.91;;;21.30;42.72
14966;BME280;7577;45.226;5.798;2023-04-15T09:55:56;98545.93;;;21.31;42.68
14966;BME280;7577;45.226;5.798;2023-04-15T09:58:29;98561.96;;;21.31;42.67
14966;BME280;7577;45.226;5.798;2023-04-15T10:01:02;98581.02;;;21.33;42.60
14966;BME280;7577;45.226;5.798;2023-04-15T10:03:33;98607.45;;;21.30;42.58
14966;BME280;7577;45.226;5.798;2023-04-15T10:08:42;98632.16;;;21.29;42.57
14966;BME280;7577;45.226;5.798;2023-04-15T10:13:50;98620.25;;;21.23;42.63
14966;BME280;7577;45.226;5.798;2023-04-15T10:16:24;98632.34;;;21.18;42.68
14966;BME280;7577;45.226;5.798;2023-04-15T10:18:56;98628.88;;;21.15;42.70
14966;BME280;7577;45.226;5.798;2023-04-15T10:21:28;98630.95;;;21.12;42.78
14966;BME280;7577;45.226;5.798;2023-04-15T10:24:01;98621.81;;;21.12;42.75
14966;BME280;7577;45.226;5.798;2023-04-15T10:29:14;98610.06;;;21.15;42.70
14966;BME280;7577;45.226;5.798;2023-04-15T10:31:45;98610.39;;;21.13;42.71
14966;BME280;7577;45.226;5.798;2023-04-15T10:34:16;98610.50;;;21.11;42.72
14966;BME280;7577;45.226;5.798;2023-04-15T10:36:47;98608.22;;;21.13;42.70
14966;BME280;7577;45.226;5.798;2023-04-15T10:39:39;98609.23;;;21.14;42.69
14966;BME280;7577;45.226;5.798;2023-04-15T10:42:12;98610.77;;;21.18;42.62
14966;BME280;7577;45.226;5.798;2023-04-15T10:44:44;98607.07;;;21.20;42.57
14966;BME280;7577;45.226;5.798;2023-04-15T10:47:17;98604.52;;;21.21;42.53
14966;BME280;7577;45.226;5.798;2023-04-15T10:52:30;98595.43;;;21.26;42.48
14966;BME280;7577;45.226;5.798;2023-04-15T10:55:11;98595.77;;;21.25;42.44
14966;BME280;7577;45.226;5.798;2023-04-15T10:57:43;98595.43;;;21.26;42.45
14966;BME280;7577;45.226;5.798;2023-04-15T11:00:15;98595.43;;;21.26;42.43
14966;BME280;7577;45.226;5.798;2023-04-15T11:02:47;98604.08;;;21.25;42.47
14966;BME280;7577;45.226;5.798;2023-04-15T11:05:19;98601.08;;;21.24;42.46
14966;BME280;7577;45.226;5.798;2023-04-15T11:07:54;98596.00;;;21.26;42.47
14966;BME280;7577;45.226;5.798;2023-04-15T11:10:55;98594.05;;;21.26;42.43
14966;BME280;7577;45.226;5.798;2023-04-15T11:13:27;98598.69;;;21.28;42.41
14966;BME280;7577;45.226;5.798;2023-04-15T11:16:02;98590.48;;;21.32;42.36
14966;BME280;7577;45.226;5.798;2023-04-15T11:18:33;98590.60;;;21.35;42.31
14966;BME280;7577;45.226;5.798;2023-04-15T11:21:08;98589.59;;;21.40;42.23
14966;BME280;7577;45.226;5.798;2023-04-15T11:26:17;98584.05;;;21.46;42.08
14966;BME280;7577;45.226;5.798;2023-04-15T11:28:47;98592.36;;;21.46;42.03
14966;BME280;7577;45.226;5.798;2023-04-15T11:31:18;98581.38;;;21.43;42.07
14966;BME280;7577;45.226;5.798;2023-04-15T11:33:54;98573.64;;;21.43;42.08
14966;BME280;7577;45.226;5.798;2023-04-15T11:36:26;98579.30;;;21.40;42.12
14966;BME280;7577;45.226;5.798;2023-04-15T11:38:58;98574.57;;;21.41;42.10
14966;BME280;7577;45.226;5.798;2023-04-15T11:41:28;98572.95;;;21.40;42.12
14966;BME280;7577;45.226;5.798;2023-04-15T11:43:58;98575.47;;;21.39;42.13
14966;BME280;7577;45.226;5.798;2023-04-15T11:46:32;98573.41;;;21.36;42.16
14966;BME280;7577;45.226;5.798;2023-04-15T11:49:02;98585.17;;;21.33;42.21
14966;BME280;7577;45.226;5.798;2023-04-15T11:51:33;98613.92;;;21.28;42.29
14966;BME280;7577;45.226;5.798;2023-04-15T11:54:04;98630.63;;;21.26;42.38
14966;BME280;7577;45.226;5.798;2023-04-15T11:56:34;98660.41;;;21.23;42.43
14966;BME280;7577;45.226;5.798;2023-04-15T11:59:05;98675.16;;;21.21;42.49
14966;BME280;7577;45.226;5.798;2023-04-15T12:01:37;98675.27;;;21.18;42.53
14966;BME280;7577;45.226;5.798;2023-04-15T12:04:12;98683.92;;;21.17;42.56
14966;BME280;7577;45.226;5.798;2023-04-15T12:06:43;98686.23;;;21.15;42.60
14966;BME280;7577;45.226;5.798;2023-04-15T12:09:15;98676.08;;;21.13;42.62
14966;BME280;7577;45.226;5.798;2023-04-15T12:14:26;98676.31;;;21.14;42.62
14966;BME280;7577;45.226;5.798;2023-04-15T12:16:59;98684.72;;;21.11;42.62
14966;BME280;7577;45.226;5.798;2023-04-15T12:19:31;98678.36;;;21.11;42.61
14966;BME280;7577;45.226;5.798;2023-04-15T12:22:03;98685.06;;;21.10;42.61
14966;BME280;7577;45.226;5.798;2023-04-15T12:27:13;98697.98;;;21.12;42.61
14966;BME280;7577;45.226;5.798;2023-04-15T12:29:44;98706.16;;;21.08;42.60
14966;BME280;7577;45.226;5.798;2023-04-15T12:32:15;98699.58;;;21.07;42.60
14966;BME280;7577;45.226;5.798;2023-04-15T12:34:50;98718.97;;;21.07;42.61
14966;BME280;7577;45.226;5.798;2023-04-15T12:37:22;98709.50;;;21.08;42.58
14966;BME280;7577;45.226;5.798;2023-04-15T12:39:52;98712.75;;;21.10;42.53
14966;BME280;7577;45.226;5.798;2023-04-15T12:42:22;98716.24;;;21.13;42.49
14966;BME280;7577;45.226;5.798;2023-04-15T12:44:53;98725.94;;;21.13;42.46
14966;BME280;7577;45.226;5.798;2023-04-15T12:47:23;98722.80;;;21.14;42.41
14966;BME280;7577;45.226;5.798;2023-04-15T12:52:30;98716.38;;;21.22;42.39
14966;BME280;7577;45.226;5.798;2023-04-15T12:57:39;98715.00;;;21.22;42.45
14966;BME280;7577;45.226;5.798;2023-04-15T13:02:49;98714.44;;;21.23;42.58
14966;BME280;7577;45.226;5.798;2023-04-15T13:05:19;98724.69;;;21.22;42.58
14966;BME280;7577;45.226;5.798;2023-04-15T13:07:49;98718.00;;;21.23;42.66
14966;BME280;7577;45.226;5.798;2023-04-15T13:10:20;98720.09;;;21.26;42.89
14966;BME280;7577;45.226;5.798;2023-04-15T13:12:50;98717.55;;;21.27;43.07
14966;BME280;7577;45.226;5.798;2023-04-15T13:15:21;98714.89;;;21.25;43.07
14966;BME280;7577;45.226;5.798;2023-04-15T13:17:51;98728.08;;;21.28;43.14
14966;BME280;7577;45.226;5.798;2023-04-15T13:20:22;98727.14;;;21.30;43.29
14966;BME280;7577;45.226;5.798;2023-04-15T13:22:53;98727.14;;;21.30;43.37
14966;BME280;7577;45.226;5.798;2023-04-15T13:25:24;98733.17;;;21.32;43.60
14966;BME280;7577;45.226;5.798;2023-04-15T13:30:33;98743.48;;;21.37;43.58
14966;BME280;7577;45.226;5.798;2023-04-15T13:33:04;98748.53;;;21.35;43.65
14966;BME280;7577;45.226;5.798;2023-04-15T13:35:34;98756.06;;;21.35;43.86
14966;BME280;7577;45.226;5.798;2023-04-15T13:38:04;98751.91;;;21.35;43.87
14966;BME280;7577;45.226;5.798;2023-04-15T13:40:34;98757.90;;;21.37;43.95
14966;BME280;7577;45.226;5.798;2023-04-15T13:43:04;98760.55;;;21.33;44.04
14966;BME280;7577;45.226;5.798;2023-04-15T13:45:34;98758.83;;;21.35;44.05
14966;BME280;7577;45.226;5.798;2023-04-15T13:48:05;98762.39;;;21.35;43.98
14966;BME280;7577;45.226;5.798;2023-04-15T13:53:13;98758.51;;;21.42;43.91
14966;BME280;7577;45.226;5.798;2023-04-15T13:55:44;98761.72;;;21.38;43.90
14966;BME280;7577;45.226;5.798;2023-04-15T13:58:14;98767.49;;;21.39;43.87
14966;BME280;7577;45.226;5.798;2023-04-15T14:00:45;98769.44;;;21.39;43.90
14966;BME280;7577;45.226;5.798;2023-04-15T14:03:15;98767.27;;;21.38;43.91
14966;BME280;7577;45.226;5.798;2023-04-15T14:05:45;98758.36;;;21.39;43.92
14966;BME280;7577;45.226;5.798;2023-04-15T14:08:15;98753.86;;;21.40;43.86
14966;BME280;7577;45.226;5.798;2023-04-15T14:10:45;98758.02;;;21.40;43.92
14966;BME280;7577;45.226;5.798;2023-04-15T14:15:55;98751.93;;;21.47;43.83
14966;BME280;7577;45.226;5.798;2023-04-15T14:18:25;98759.78;;;21.45;43.82
14966;BME280;7577;45.226;5.798;2023-04-15T14:20:56;98764.17;;;21.46;43.81
14966;BME280;7577;45.226;5.798;2023-04-15T14:26:04;98767.55;;;21.51;43.78
14966;BME280;7577;45.226;5.798;2023-04-15T14:28:34;98768.81;;;21.48;43.82
14966;BME280;7577;45.226;5.798;2023-04-15T14:31:06;98765.45;;;21.48;43.79
14966;BME280;7577;45.226;5.798;2023-04-15T14:33:37;98776.20;;;21.50;43.79
14966;BME280;7577;45.226;5.798;2023-04-15T14:38:46;98778.26;;;21.47;43.79
14966;BME280;7577;45.226;5.798;2023-04-15T14:41:16;98787.50;;;21.45;43.76
14966;BME280;7577;45.226;5.798;2023-04-15T14:43:46;98794.66;;;21.46;43.75
14966;BME280;7577;45.226;5.798;2023-04-15T14:46:16;98791.55;;;21.47;43.77
14966;BME280;7577;45.226;5.798;2023-04-15T14:48:46;98793.17;;;21.48;43.71
14966;BME280;7577;45.226;5.798;2023-04-15T14:51:17;98789.83;;;21.49;43.62
14966;BME280;7577;45.226;5.798;2023-04-15T14:53:47;98802.53;;;21.50;43.64
14966;BME280;7577;45.226;5.798;2023-04-15T14:56:17;98803.36;;;21.50;43.61
14966;BME280;7577;45.226;5.798;2023-04-15T14:58:47;98810.74;;;21.52;43.58
14966;BME280;7577;45.226;5.798;2023-04-15T15:01:19;98806.81;;;21.53;43.59
14966;BME280;7577;45.226;5.798;2023-04-15T15:06:27;98807.53;;;21.56;43.72
14966;BME280;7577;45.226;5.798;2023-04-15T15:08:59;98803.81;;;21.52;43.74
14966;BME280;7577;45.226;5.798;2023-04-15T15:11:29;98803.48;;;21.54;43.75
14966;BME280;7577;45.226;5.798;2023-04-15T15:13:59;98802.88;;;21.54;43.68
14966;BME280;7577;45.226;5.798;2023-04-15T15:16:29;98806.48;;;21.55;43.68
14966;BME280;7577;45.226;5.798;2023-04-15T15:21:37;98807.20;;;21.58;43.75
14966;BME280;7577;45.226;5.798;2023-04-15T15:24:07;98807.30;;;21.55;43.76
14966;BME280;7577;45.226;5.798;2023-04-15T15:26:38;98803.49;;;21.60;43.70
14966;BME280;7577;45.226;5.798;2023-04-15T15:29:08;98820.28;;;21.63;43.68
14966;BME280;7577;45.226;5.798;2023-04-15T15:31:39;98816.29;;;21.73;43.60
14966;BME280;7577;45.226;5.798;2023-04-15T15:34:09;98811.34;;;21.78;43.51
14966;BME280;7577;45.226;5.798;2023-04-15T15:36:39;98813.01;;;21.85;43.37
14966;BME280;7577;45.226;5.798;2023-04-15T15:39:10;98817.73;;;21.91;43.42